createdAt,value
2022-08-26T00:01:56.917Z,99.90
2022-08-26T00:04:25.502Z,99.90
2022-08-26T00:06:56.357Z,99.90
2022-08-26T00:09:24.956Z,99.90
2022-08-26T00:11:52.539Z,99.90
2022-08-26T00:14:19.555Z,99.90
2022-08-26T00:16:48.253Z,99.90
2022-08-26T00:19:19.334Z,99.90
2022-08-26T00:21:48.879Z,99.90
2022-08-26T00:24:18.251Z,99.90
2022-08-26T00:26:45.391Z,99.90
2022-08-26T00:29:13.190Z,99.90
2022-08-26T00:31:41.917Z,99.90
2022-08-26T00:34:11.239Z,99.90
2022-08-26T00:36:40.733Z,99.90
2022-08-26T00:39:08.761Z,99.90
2022-08-26T00:41:38.421Z,99.90
2022-08-26T00:44:06.759Z,99.90
2022-08-26T00:46:44.997Z,99.90
2022-08-26T00:49:21.865Z,99.90
2022-08-26T00:51:58.458Z,99.90
2022-08-26T00:54:33.316Z,99.90
2022-08-26T00:57:08.562Z,99.90
2022-08-26T00:59:49.118Z,99.90
2022-08-26T01:02:19.977Z,99.90
2022-08-26T01:04:49.862Z,99.90
2022-08-26T01:07:24.821Z,99.90
2022-08-26T01:09:52.187Z,99.90
2022-08-26T01:12:22.113Z,99.90
2022-08-26T01:14:49.831Z,99.90
2022-08-26T01:17:17.593Z,99.90
2022-08-26T01:19:51.935Z,99.90
2022-08-26T01:22:41.854Z,99.90
2022-08-26T01:25:11.236Z,99.90
2022-08-26T01:27:38.960Z,99.90
2022-08-26T01:30:07.007Z,99.90
2022-08-26T01:32:38.834Z,99.90
2022-08-26T01:35:07.476Z,99.90
2022-08-26T01:37:36.987Z,99.90
2022-08-26T01:40:07.874Z,99.90
2022-08-26T01:42:34.930Z,99.90
2022-08-26T01:45:12.422Z,99.90
2022-08-26T01:47:39.879Z,99.90
2022-08-26T01:50:15.682Z,99.90
2022-08-26T01:52:54.385Z,99.90
2022-08-26T01:55:34.203Z,99.90
2022-08-26T01:58:08.878Z,99.90
2022-08-26T02:00:37.044Z,99.90
2022-08-26T02:03:19.159Z,99.90
2022-08-26T02:05:52.051Z,99.90
2022-08-26T02:08:45.609Z,99.90
2022-08-26T02:11:15.580Z,99.90
2022-08-26T02:13:50.970Z,99.90
2022-08-26T02:16:21.341Z,99.90
2022-08-26T02:18:50.539Z,99.90
2022-08-26T02:21:20.524Z,99.90
2022-08-26T02:23:47.717Z,99.90
2022-08-26T02:26:24.650Z,99.90
2022-08-26T02:29:10.947Z,99.90
2022-08-26T02:31:38.602Z,99.90
2022-08-26T02:34:14.421Z,99.90
2022-08-26T02:36:49.178Z,99.90
2022-08-26T02:39:22.226Z,99.90
2022-08-26T02:41:49.942Z,99.90
2022-08-26T02:44:18.953Z,99.90
2022-08-26T02:46:47.169Z,99.90
2022-08-26T02:49:16.309Z,99.90
2022-08-26T02:51:44.111Z,99.90
2022-08-26T02:54:17.011Z,99.90
2022-08-26T02:56:44.980Z,99.90
2022-08-26T02:59:15.503Z,99.90
2022-08-26T03:01:45.284Z,99.90
2022-08-26T03:04:13.073Z,99.90
2022-08-26T03:06:41.643Z,99.90
2022-08-26T03:09:09.426Z,99.90
2022-08-26T03:11:37.756Z,99.90
2022-08-26T03:14:12.100Z,99.90
2022-08-26T03:16:40.763Z,99.90
2022-08-26T03:19:09.667Z,99.90
2022-08-26T03:21:44.868Z,99.90
2022-08-26T03:24:16.551Z,99.90
2022-08-26T03:26:52.069Z,99.90
2022-08-26T03:29:39.175Z,99.90
2022-08-26T03:32:08.296Z,99.90
2022-08-26T03:34:36.225Z,99.90
2022-08-26T03:37:03.170Z,99.90
2022-08-26T03:39:32.626Z,99.90
2022-08-26T03:42:02.089Z,99.90
2022-08-26T03:44:29.506Z,99.90
2022-08-26T03:46:56.663Z,99.90
2022-08-26T03:49:23.779Z,99.90
2022-08-26T03:51:50.664Z,99.90
2022-08-26T03:54:18.349Z,99.90
2022-08-26T03:56:46.516Z,99.90
2022-08-26T03:59:13.811Z,99.90
2022-08-26T04:01:41.042Z,99.90
2022-08-26T04:04:08.053Z,99.90
2022-08-26T04:06:44.585Z,99.90
2022-08-26T04:09:15.742Z,99.90
2022-08-26T04:11:44.717Z,99.90
2022-08-26T04:14:20.233Z,99.90
2022-08-26T04:16:49.632Z,99.90
2022-08-26T04:19:17.658Z,99.90
2022-08-26T04:21:47.528Z,99.90
2022-08-26T04:24:16.588Z,99.90
2022-08-26T04:26:44.764Z,99.90
2022-08-26T04:29:24.002Z,99.90
2022-08-26T04:31:55.750Z,99.90
2022-08-26T04:34:25.053Z,99.90
2022-08-26T04:36:56.176Z,99.90
2022-08-26T04:39:23.307Z,99.90
2022-08-26T04:41:54.902Z,99.90
2022-08-26T04:44:22.358Z,99.90
2022-08-26T04:46:50.980Z,99.90
2022-08-26T04:49:18.438Z,99.90
2022-08-26T04:51:52.529Z,99.90
2022-08-26T04:54:21.877Z,99.90
2022-08-26T04:56:50.730Z,99.90
2022-08-26T04:59:19.842Z,99.90
2022-08-26T05:01:50.331Z,99.90
2022-08-26T05:04:22.186Z,99.90
2022-08-26T05:06:49.617Z,99.90
2022-08-26T05:09:22.507Z,99.90
2022-08-26T05:11:52.174Z,99.90
2022-08-26T05:14:23.409Z,99.90
2022-08-26T05:16:50.609Z,99.90
2022-08-26T05:19:19.181Z,99.90
2022-08-26T05:21:47.817Z,99.90
2022-08-26T05:24:15.707Z,99.90
2022-08-26T05:26:51.770Z,99.90
2022-08-26T05:29:18.654Z,99.90
2022-08-26T05:31:50.297Z,99.90
2022-08-26T05:34:17.649Z,99.90
2022-08-26T05:36:50.065Z,99.90
2022-08-26T05:39:17.495Z,99.90
2022-08-26T05:41:44.969Z,99.90
2022-08-26T05:44:14.366Z,99.90
2022-08-26T05:46:42.263Z,99.90
2022-08-26T05:49:12.566Z,99.90
2022-08-26T05:51:42.669Z,99.90
2022-08-26T05:54:10.408Z,99.90
2022-08-26T05:56:38.830Z,99.90
2022-08-26T05:59:06.691Z,99.90
2022-08-26T06:01:42.448Z,99.90
2022-08-26T06:04:10.090Z,99.90
2022-08-26T06:06:41.333Z,99.90
2022-08-26T06:09:10.979Z,99.90
2022-08-26T06:11:39.013Z,99.90
2022-08-26T06:14:09.747Z,99.90
2022-08-26T06:16:40.710Z,99.90
2022-08-26T06:19:11.175Z,99.90
2022-08-26T06:21:40.456Z,99.90
2022-08-26T06:24:29.757Z,99.90
2022-08-26T06:27:01.693Z,99.90
2022-08-26T06:29:30.547Z,99.90
2022-08-26T06:31:58.140Z,99.90
2022-08-26T06:34:30.953Z,99.90
2022-08-26T06:37:02.481Z,99.90
2022-08-26T06:39:31.498Z,99.90
2022-08-26T06:42:00.308Z,99.90
2022-08-26T06:44:27.354Z,99.90
2022-08-26T06:46:54.654Z,99.90
2022-08-26T06:49:27.240Z,99.90
2022-08-26T06:51:58.616Z,99.90
2022-08-26T06:54:26.833Z,99.90
2022-08-26T06:56:53.925Z,99.90
2022-08-26T06:59:21.902Z,99.90
2022-08-26T07:01:49.704Z,99.90
2022-08-26T07:04:22.038Z,99.90
2022-08-26T07:06:52.331Z,99.90
2022-08-26T07:09:22.052Z,99.90
2022-08-26T07:11:49.266Z,99.90
2022-08-26T07:14:21.093Z,99.90
2022-08-26T07:16:50.147Z,99.90
2022-08-26T07:19:30.368Z,99.90
2022-08-26T07:21:59.739Z,99.90
2022-08-26T07:24:28.468Z,99.90
2022-08-26T07:27:03.757Z,99.90
2022-08-26T07:29:33.299Z,99.90
2022-08-26T07:32:00.253Z,99.90
2022-08-26T07:34:27.341Z,99.90
2022-08-26T07:36:55.279Z,99.90
2022-08-26T07:39:22.842Z,99.90
2022-08-26T07:41:49.933Z,99.90
2022-08-26T07:44:17.130Z,99.90
2022-08-26T07:46:52.393Z,99.90
2022-08-26T07:49:22.593Z,99.90
2022-08-26T07:51:50.575Z,99.90
2022-08-26T07:54:17.866Z,99.90
2022-08-26T07:56:46.270Z,99.90
2022-08-26T07:59:15.114Z,99.90
2022-08-26T08:01:45.142Z,99.90
2022-08-26T08:04:17.924Z,99.90
2022-08-26T08:06:46.029Z,99.90
2022-08-26T08:09:16.072Z,99.90
2022-08-26T08:11:44.722Z,99.90
2022-08-26T08:14:12.218Z,99.90
2022-08-26T08:16:45.878Z,99.90
2022-08-26T08:19:13.719Z,99.90
2022-08-26T08:21:42.006Z,99.90
2022-08-26T08:24:10.111Z,99.90
2022-08-26T08:26:37.608Z,99.90
2022-08-26T08:29:05.863Z,99.90
2022-08-26T08:31:55.879Z,99.90
2022-08-26T08:34:21.543Z,99.90
2022-08-26T08:36:49.083Z,99.90
2022-08-26T08:39:17.463Z,99.90
2022-08-26T08:41:53.116Z,99.90
2022-08-26T08:44:22.424Z,99.90
2022-08-26T08:46:58.377Z,99.90
2022-08-26T08:49:26.031Z,99.90
2022-08-26T08:52:06.682Z,99.90
2022-08-26T08:54:33.982Z,99.90
2022-08-26T08:57:36.025Z,99.90
2022-08-26T09:00:09.281Z,99.90
2022-08-26T09:02:50.136Z,99.90
2022-08-26T09:05:17.021Z,99.90
2022-08-26T09:08:11.128Z,99.90
2022-08-26T09:10:52.927Z,99.90
2022-08-26T09:13:26.149Z,99.90
2022-08-26T09:16:15.516Z,99.90
2022-08-26T09:19:19.318Z,99.90
2022-08-26T09:21:54.534Z,99.90
2022-08-26T09:24:23.824Z,99.90
2022-08-26T09:26:57.872Z,99.90
2022-08-26T09:29:26.461Z,99.90
2022-08-26T09:32:16.348Z,99.90
2022-08-26T09:34:56.605Z,99.90
2022-08-26T09:37:39.671Z,99.90
2022-08-26T09:40:30.049Z,99.90
2022-08-26T09:43:07.844Z,99.90
2022-08-26T09:45:36.013Z,99.90
2022-08-26T09:48:03.575Z,99.90
2022-08-26T09:50:39.578Z,99.90
2022-08-26T09:53:21.007Z,99.90
2022-08-26T09:55:51.172Z,99.90
2022-08-26T09:58:42.910Z,99.90
2022-08-26T10:01:36.101Z,99.90
2022-08-26T10:04:08.259Z,99.90
2022-08-26T10:06:43.436Z,99.90
2022-08-26T10:09:16.821Z,99.90
2022-08-26T10:11:50.954Z,99.90
2022-08-26T10:14:29.874Z,99.90
2022-08-26T10:17:29.159Z,99.90
2022-08-26T10:20:06.320Z,99.90
2022-08-26T10:22:59.193Z,99.90
2022-08-26T10:25:33.295Z,99.90
2022-08-26T10:28:06.473Z,99.90
2022-08-26T10:30:49.013Z,99.90
2022-08-26T10:33:18.050Z,98.80
2022-08-26T10:36:01.383Z,99.00
2022-08-26T10:38:34.802Z,98.40
2022-08-26T10:41:11.263Z,98.40
2022-08-26T10:43:45.181Z,97.50
2022-08-26T10:46:22.488Z,96.30
2022-08-26T10:49:03.210Z,95.60
2022-08-26T10:51:42.115Z,95.40
2022-08-26T10:54:41.288Z,95.40
2022-08-26T10:57:37.428Z,95.50
2022-08-26T11:00:38.134Z,95.10
2022-08-26T11:03:34.437Z,95.30
2022-08-26T11:06:18.866Z,94.10
2022-08-26T11:08:54.802Z,93.80
2022-08-26T11:11:41.990Z,93.60
2022-08-26T11:14:28.924Z,93.00
2022-08-26T11:16:58.894Z,92.70
2022-08-26T11:19:59.417Z,93.20
2022-08-26T11:22:36.303Z,93.90
2022-08-26T11:25:11.798Z,93.60
2022-08-26T11:27:38.700Z,93.50
2022-08-26T11:30:13.672Z,92.60
2022-08-26T11:32:40.576Z,92.40
2022-08-26T11:35:11.783Z,91.40
2022-08-26T11:38:06.449Z,91.00
2022-08-26T11:40:40.496Z,91.00
2022-08-26T11:43:13.657Z,89.50
2022-08-26T11:45:42.215Z,85.60
2022-08-26T11:48:21.624Z,82.40
2022-08-26T11:50:58.960Z,80.50
2022-08-26T11:53:27.251Z,78.10
2022-08-26T11:55:58.331Z,76.30
2022-08-26T11:58:27.354Z,74.60
2022-08-26T12:01:05.552Z,71.80
2022-08-26T12:03:51.243Z,69.10
2022-08-26T12:06:37.458Z,68.00
2022-08-26T12:09:20.261Z,63.90
2022-08-26T12:11:47.445Z,61.40
2022-08-26T12:14:21.843Z,61.00
2022-08-26T12:16:48.951Z,59.50
2022-08-26T12:19:33.498Z,59.20
2022-08-26T12:22:18.089Z,58.10
2022-08-26T12:24:55.648Z,58.30
2022-08-26T12:27:42.299Z,57.00
2022-08-26T12:30:14.346Z,55.70
2022-08-26T12:33:22.050Z,55.00
2022-08-26T12:35:54.294Z,54.90
2022-08-26T12:38:22.569Z,54.60
2022-08-26T12:40:50.977Z,53.60
2022-08-26T12:43:44.370Z,53.10
2022-08-26T12:46:16.014Z,51.50
2022-08-26T12:48:47.646Z,51.70
2022-08-26T12:51:26.927Z,51.70
2022-08-26T12:53:54.714Z,51.70
2022-08-26T12:56:39.059Z,51.10
2022-08-26T12:59:25.369Z,52.00
2022-08-26T13:01:54.007Z,52.10
2022-08-26T13:04:41.266Z,51.70
2022-08-26T13:07:25.400Z,51.00
2022-08-26T13:09:58.543Z,49.70
2022-08-26T13:12:31.302Z,49.30
2022-08-26T13:15:01.725Z,48.40
2022-08-26T13:17:30.600Z,48.00
2022-08-26T13:20:03.545Z,47.40
2022-08-26T13:22:31.638Z,47.80
2022-08-26T13:24:58.950Z,48.60
2022-08-26T13:27:27.356Z,48.10
2022-08-26T13:29:57.196Z,48.10
2022-08-26T13:32:27.213Z,47.40
2022-08-26T13:34:56.238Z,47.10
2022-08-26T13:37:31.489Z,47.40
2022-08-26T13:40:01.926Z,46.60
2022-08-26T13:42:29.496Z,46.40
2022-08-26T13:44:58.211Z,45.80
2022-08-26T13:47:26.275Z,45.90
2022-08-26T13:49:55.393Z,45.50
2022-08-26T13:52:30.102Z,45.40
2022-08-26T13:54:58.745Z,45.60
2022-08-26T13:57:28.053Z,46.10
2022-08-26T13:59:57.239Z,46.90
2022-08-26T14:02:24.416Z,47.30
2022-08-26T14:04:51.937Z,47.60
2022-08-26T14:07:18.931Z,47.60
2022-08-26T14:09:45.930Z,48.40
2022-08-26T14:12:12.865Z,48.20
2022-08-26T14:14:39.857Z,48.30
2022-08-26T14:17:07.312Z,48.30
2022-08-26T14:19:34.260Z,49.00
2022-08-26T14:22:01.894Z,48.90
2022-08-26T14:24:29.596Z,48.90
2022-08-26T14:26:56.623Z,49.10
2022-08-26T14:29:23.619Z,48.80
2022-08-26T14:31:50.571Z,49.30
2022-08-26T14:34:18.123Z,49.60
2022-08-26T14:36:45.081Z,49.30
2022-08-26T14:39:14.381Z,49.00
2022-08-26T14:41:45.998Z,50.10
2022-08-26T14:44:22.024Z,49.90
2022-08-26T14:46:51.194Z,49.40
2022-08-26T14:49:19.251Z,48.90
2022-08-26T14:51:46.418Z,48.80
2022-08-26T14:54:16.290Z,49.40
2022-08-26T14:56:49.367Z,49.60
2022-08-26T14:59:22.170Z,49.10
2022-08-26T15:01:49.448Z,48.80
2022-08-26T15:04:16.964Z,49.10
2022-08-26T15:06:44.185Z,49.30
2022-08-26T15:09:11.868Z,49.90
2022-08-26T15:11:39.410Z,50.20
2022-08-26T15:14:06.643Z,50.20
2022-08-26T15:16:34.608Z,50.50
2022-08-26T15:19:04.680Z,50.30
2022-08-26T15:21:33.701Z,49.90
2022-08-26T15:24:01.130Z,50.20
2022-08-26T15:26:30.182Z,50.80
2022-08-26T15:28:58.401Z,50.00
2022-08-26T15:31:31.565Z,50.10
2022-08-26T15:34:00.317Z,50.20
2022-08-26T15:36:29.125Z,49.50
2022-08-26T15:38:57.613Z,49.40
2022-08-26T15:41:24.801Z,49.50
2022-08-26T15:43:52.431Z,50.00
2022-08-26T15:46:20.298Z,49.80
2022-08-26T15:48:47.410Z,49.80
2022-08-26T15:51:32.467Z,49.80
2022-08-26T15:54:01.629Z,50.10
2022-08-26T15:56:31.123Z,50.60
2022-08-26T15:58:59.083Z,51.10
2022-08-26T16:01:28.136Z,52.10
2022-08-26T16:03:56.808Z,53.30
2022-08-26T16:06:27.566Z,53.30
2022-08-26T16:08:56.232Z,53.80
2022-08-26T16:11:23.934Z,54.60
2022-08-26T16:13:51.249Z,55.50
2022-08-26T16:16:18.814Z,56.00
2022-08-26T16:18:45.861Z,56.20
2022-08-26T16:21:28.709Z,57.20
2022-08-26T16:23:57.043Z,57.50
2022-08-26T16:26:32.637Z,58.00
2022-08-26T16:29:01.810Z,58.60
2022-08-26T16:31:29.847Z,59.20
2022-08-26T16:33:56.837Z,59.60
2022-08-26T16:36:24.114Z,59.80
2022-08-26T16:38:56.464Z,60.10
2022-08-26T16:41:25.751Z,60.90
2022-08-26T16:43:53.295Z,61.50
2022-08-26T16:46:22.343Z,61.50
2022-08-26T16:48:49.639Z,61.70
2022-08-26T16:51:19.367Z,61.60
2022-08-26T16:53:46.576Z,62.20
2022-08-26T16:56:15.439Z,62.40
2022-08-26T16:58:42.926Z,63.10
2022-08-26T17:01:10.238Z,63.50
2022-08-26T17:03:37.701Z,63.70
2022-08-26T17:06:04.873Z,64.10
2022-08-26T17:08:32.152Z,64.50
2022-08-26T17:11:00.781Z,64.90
2022-08-26T17:13:35.181Z,65.30
2022-08-26T17:16:05.228Z,65.70
2022-08-26T17:18:33.531Z,66.00
2022-08-26T17:21:08.319Z,66.30
2022-08-26T17:23:35.956Z,66.90
2022-08-26T17:26:03.482Z,66.90
2022-08-26T17:28:30.370Z,67.40
2022-08-26T17:30:58.429Z,67.90
2022-08-26T17:33:25.864Z,68.30
2022-08-26T17:35:53.177Z,68.60
2022-08-26T17:38:21.254Z,69.10
2022-08-26T17:40:48.583Z,69.50
2022-08-26T17:43:16.778Z,70.00
2022-08-26T17:45:43.976Z,70.40
2022-08-26T17:48:11.353Z,71.30
2022-08-26T17:50:40.184Z,71.60
2022-08-26T17:53:07.997Z,72.30
2022-08-26T17:55:41.846Z,72.80
2022-08-26T17:58:14.776Z,73.10
2022-08-26T18:00:47.457Z,73.50
2022-08-26T18:03:14.810Z,74.30
2022-08-26T18:05:42.713Z,74.60
2022-08-26T18:08:10.145Z,75.00
2022-08-26T18:10:37.073Z,75.60
2022-08-26T18:13:04.887Z,75.90
2022-08-26T18:15:31.814Z,76.50
2022-08-26T18:17:58.768Z,77.00
2022-08-26T18:20:25.982Z,77.50
2022-08-26T18:22:54.326Z,78.20
2022-08-26T18:25:21.307Z,78.90
2022-08-26T18:27:48.214Z,79.10
2022-08-26T18:30:19.624Z,79.60
2022-08-26T18:32:48.001Z,80.20
2022-08-26T18:35:15.067Z,80.50
2022-08-26T18:37:44.452Z,80.90
2022-08-26T18:40:13.841Z,81.20
2022-08-26T18:42:41.517Z,81.60
2022-08-26T18:45:09.411Z,81.70
2022-08-26T18:47:36.334Z,82.80
2022-08-26T18:50:04.732Z,82.00
2022-08-26T18:52:32.539Z,82.20
2022-08-26T18:54:59.551Z,82.20
2022-08-26T18:57:26.402Z,82.20
2022-08-26T18:59:53.282Z,82.20
2022-08-26T19:02:20.310Z,82.50
2022-08-26T19:04:47.247Z,82.70
2022-08-26T19:07:14.585Z,82.80
2022-08-26T19:09:41.460Z,83.10
2022-08-26T19:12:09.029Z,83.10
2022-08-26T19:14:36.722Z,83.30
2022-08-26T19:17:04.338Z,83.70
2022-08-26T19:19:31.862Z,83.90
2022-08-26T19:21:59.009Z,84.20
2022-08-26T19:24:25.963Z,84.40
2022-08-26T19:26:58.444Z,84.70
2022-08-26T19:29:29.683Z,84.90
2022-08-26T19:31:56.793Z,85.00
2022-08-26T19:34:24.199Z,85.10
2022-08-26T19:36:53.272Z,85.60
2022-08-26T19:39:21.255Z,86.10
2022-08-26T19:41:48.257Z,86.50
2022-08-26T19:44:36.579Z,86.50
2022-08-26T19:47:04.958Z,86.80
2022-08-26T19:49:32.463Z,87.50
2022-08-26T19:51:59.795Z,88.00
2022-08-26T19:54:27.224Z,88.30
2022-08-26T19:56:54.645Z,88.30
2022-08-26T19:59:21.578Z,88.50
2022-08-26T20:01:55.185Z,89.00
2022-08-26T20:04:28.064Z,88.90
2022-08-26T20:06:57.815Z,89.60
2022-08-26T20:09:31.308Z,90.00
2022-08-26T20:11:58.734Z,90.10
2022-08-26T20:14:27.103Z,90.30
2022-08-26T20:16:54.485Z,90.50
2022-08-26T20:19:40.007Z,90.80
2022-08-26T20:22:08.255Z,90.90
2022-08-26T20:24:35.710Z,91.00
2022-08-26T20:27:07.532Z,91.20
2022-08-26T20:29:36.251Z,91.50
2022-08-26T20:32:05.397Z,91.60
2022-08-26T20:34:33.508Z,91.70
2022-08-26T20:37:00.502Z,91.90
2022-08-26T20:39:29.695Z,92.10
2022-08-26T20:41:59.414Z,92.30
2022-08-26T20:44:26.677Z,92.50
2022-08-26T20:46:53.639Z,92.60
2022-08-26T20:49:20.701Z,92.70
2022-08-26T20:51:51.523Z,92.80
2022-08-26T20:54:23.948Z,93.00
2022-08-26T20:56:54.543Z,93.40
2022-08-26T20:59:21.642Z,93.60
2022-08-26T21:01:48.949Z,93.90
2022-08-26T21:04:19.281Z,94.30
2022-08-26T21:06:52.415Z,94.60
2022-08-26T21:09:22.121Z,95.00
2022-08-26T21:11:50.099Z,95.30
2022-08-26T21:14:17.890Z,95.70
2022-08-26T21:16:46.894Z,96.00
2022-08-26T21:19:17.636Z,96.30
2022-08-26T21:21:45.419Z,96.40
2022-08-26T21:24:13.187Z,96.50
2022-08-26T21:26:40.319Z,96.60
2022-08-26T21:29:09.872Z,96.80
2022-08-26T21:31:42.285Z,97.10
2022-08-26T21:34:13.273Z,97.30
2022-08-26T21:36:40.212Z,97.40
2022-08-26T21:39:11.513Z,97.60
2022-08-26T21:41:39.714Z,97.80
2022-08-26T21:44:06.799Z,97.80
2022-08-26T21:46:36.433Z,97.90
2022-08-26T21:49:07.553Z,98.10
2022-08-26T21:51:37.919Z,98.40
2022-08-26T21:54:10.719Z,98.60
2022-08-26T21:56:44.658Z,98.80
2022-08-26T21:59:12.745Z,99.20
2022-08-26T22:01:40.269Z,99.50
2022-08-26T22:04:09.229Z,99.80
2022-08-26T22:06:44.596Z,99.90
2022-08-26T22:09:13.236Z,99.80
2022-08-26T22:11:40.259Z,99.90
2022-08-26T22:14:07.515Z,99.90
2022-08-26T22:16:34.713Z,99.90
2022-08-26T22:19:02.513Z,99.90
2022-08-26T22:21:30.584Z,99.90
2022-08-26T22:23:58.721Z,99.90
2022-08-26T22:26:29.125Z,99.90
2022-08-26T22:28:58.646Z,99.90
2022-08-26T22:31:37.245Z,99.90
2022-08-26T22:34:10.302Z,99.90
2022-08-26T22:36:43.034Z,99.90
2022-08-26T22:39:14.737Z,99.90
2022-08-26T22:41:43.377Z,99.90
2022-08-26T22:44:11.989Z,99.90
2022-08-26T22:46:39.523Z,99.90
2022-08-26T22:49:09.567Z,99.90
2022-08-26T22:51:36.884Z,99.90
2022-08-26T22:54:04.102Z,99.90
2022-08-26T22:56:31.079Z,99.90
2022-08-26T22:58:58.044Z,99.90
2022-08-26T23:01:25.172Z,99.90
2022-08-26T23:03:52.279Z,99.90
2022-08-26T23:06:22.407Z,99.90
2022-08-26T23:08:49.545Z,99.90
2022-08-26T23:11:16.485Z,99.90
2022-08-26T23:13:43.726Z,99.90
2022-08-26T23:16:12.391Z,99.90
2022-08-26T23:18:40.417Z,99.90
2022-08-26T23:21:07.619Z,99.90
2022-08-26T23:23:35.405Z,99.90
2022-08-26T23:26:06.139Z,99.90
2022-08-26T23:28:33.949Z,99.90
2022-08-26T23:31:00.922Z,99.90
2022-08-26T23:33:48.062Z,99.90
2022-08-26T23:36:18.181Z,99.90
2022-08-26T23:38:48.152Z,99.90
2022-08-26T23:41:19.675Z,99.90
2022-08-26T23:43:46.607Z,99.90
2022-08-26T23:46:13.855Z,99.90
2022-08-26T23:48:40.878Z,99.90
2022-08-26T23:51:26.242Z,99.90
2022-08-26T23:53:53.194Z,99.90
2022-08-26T23:56:20.225Z,99.90
2022-08-26T23:58:47.882Z,99.90
